Time;durP1;ratioP1;P1;durP2;ratioP2;P2;SDS_P1;SDS_P2;PMS_P1;PMS_P2;Temp;Humidity;BMP_temperature;BMP_pressure;BME280_temperature;BME280_humidity;BME280_pressure;Samples;Min_cycle;Max_cycle;Signal;HPM_P1;HPM_P2
2022/11/15 00:00:54;;;;;;;32.13;26.95;;;7.60;99.90;;;;;;5017352;28;20037;-72
2022/11/15 00:03:26;;;;;;;31.52;26.50;;;7.50;99.90;;;;;;5034509;28;20047;-72
2022/11/15 00:05:52;;;;;;;34.92;27.42;;;7.30;99.90;;;;;;5034537;28;20033;-72
2022/11/15 00:08:18;;;;;;;32.35;26.15;;;7.50;99.90;;;;;;5034468;28;20420;-72
2022/11/15 00:10:54;;;;;;;32.65;26.13;;;7.10;99.90;;;;;;5034566;28;20401;-72
2022/11/15 00:13:20;;;;;;;33.63;26.55;;;7.00;99.90;;;;;;5016905;28;20060;-72
2022/11/15 00:15:45;;;;;;;33.35;26.80;;;6.90;99.90;;;;;;5017723;28;20041;-72
2022/11/15 00:18:13;;;;;;;35.65;27.50;;;7.20;99.90;;;;;;5034359;28;20049;-73
2022/11/15 00:20:39;;;;;;;35.58;28.50;;;6.80;99.90;;;;;;5038178;28;20033;-72
2022/11/15 00:23:05;;;;;;;37.25;29.63;;;6.80;99.90;;;;;;5037812;28;20044;-72
2022/11/15 00:25:31;;;;;;;37.17;29.98;;;6.80;99.90;;;;;;5037691;28;20456;-73
2022/11/15 00:27:58;;;;;;;42.28;30.45;;;6.80;99.90;;;;;;5021083;28;20046;-72
2022/11/15 00:30:24;;;;;;;39.78;30.00;;;6.90;99.90;;;;;;5038470;28;20045;-73
2022/11/15 00:32:50;;;;;;;36.28;29.65;;;6.90;99.90;;;;;;5037761;28;20064;-72
2022/11/15 00:35:16;;;;;;;41.33;29.90;;;6.80;99.90;;;;;;5037893;28;20045;-72
2022/11/15 00:37:41;;;;;;;37.00;29.98;;;6.80;99.90;;;;;;5020734;28;20053;-72
2022/11/15 00:40:08;;;;;;;35.85;29.40;;;6.80;99.90;;;;;;5037574;28;20037;-72
2022/11/15 00:42:34;;;;;;;39.47;31.00;;;6.80;99.90;;;;;;5037527;28;20065;-73
2022/11/15 00:44:59;;;;;;;38.05;29.77;;;6.80;99.90;;;;;;5037605;28;20535;-72
2022/11/15 00:47:25;;;;;;;35.67;29.40;;;6.80;99.90;;;;;;5037773;28;20343;-73
2022/11/15 00:49:51;;;;;;;36.80;28.73;;;6.90;99.90;;;;;;5037455;28;20099;-72
2022/11/15 00:52:16;;;;;;;37.58;29.17;;;6.90;99.90;;;;;;5019949;28;20361;-72
2022/11/15 00:54:42;;;;;;;36.28;29.20;;;6.90;99.90;;;;;;5037266;28;20034;-71
2022/11/15 00:57:10;;;;;;;35.15;28.52;;;7.00;99.90;;;;;;5019661;28;20041;-72
2022/11/15 00:59:36;;;;;;;34.75;28.83;;;7.00;99.90;;;;;;5037258;28;20091;-72
2022/11/15 01:02:02;;;;;;;31.63;27.05;;;7.00;99.90;;;;;;5036953;28;20049;-72
2022/11/15 01:04:27;;;;;;;33.13;26.83;;;7.10;99.90;;;;;;5037334;28;20053;-72
2022/11/15 01:06:53;;;;;;;34.65;27.38;;;7.10;99.90;;;;;;5037373;28;20087;-72
2022/11/15 01:09:19;;;;;;;35.72;27.80;;;7.10;99.90;;;;;;5036885;28;20049;-72
2022/11/15 01:11:45;;;;;;;40.28;29.38;;;7.10;99.90;;;;;;5020334;28;20052;-72
2022/11/15 01:14:10;;;;;;;36.05;28.60;;;7.20;99.90;;;;;;5036955;28;20347;-72
2022/11/15 01:16:36;;;;;;;36.70;29.67;;;7.20;99.90;;;;;;5002778;28;20068;-72
2022/11/15 01:19:02;;;;;;;35.75;29.02;;;7.30;99.90;;;;;;5019376;28;20119;-72
2022/11/15 01:21:27;;;;;;;39.85;30.75;;;7.30;99.90;;;;;;5037093;28;20072;-72
2022/11/15 01:23:55;;;;;;;34.35;29.38;;;7.60;99.90;;;;;;5036709;28;20476;-72
2022/11/15 01:26:21;;;;;;;35.42;29.02;;;7.30;99.90;;;;;;5036595;28;20099;-72
2022/11/15 01:28:46;;;;;;;38.40;30.20;;;7.40;99.90;;;;;;5036777;28;20087;-72
2022/11/15 01:31:15;;;;;;;36.10;29.33;;;7.40;99.90;;;;;;5035809;28;20033;-73
2022/11/15 01:33:41;;;;;;;36.55;28.73;;;7.40;99.90;;;;;;5036728;28;20055;-72
2022/11/15 01:36:11;;;;;;;34.58;28.33;;;7.40;99.90;;;;;;5036821;28;20404;-73
2022/11/15 01:38:36;;;;;;;36.70;28.17;;;7.40;99.90;;;;;;5036389;28;20116;-73
2022/11/15 01:41:02;;;;;;;36.63;27.73;;;7.50;99.90;;;;;;5036497;28;20088;-72
2022/11/15 01:43:34;;;;;;;35.10;27.25;;;7.40;99.90;;;;;;5036459;28;20060;-72
2022/11/15 01:46:22;;;;;;;37.58;28.13;;;7.50;99.90;;;;;;5036297;28;20512;-73
2022/11/15 01:48:56;;;;;;;33.60;25.70;;;7.50;99.90;;;;;;5019124;28;20053;-73
2022/11/15 01:51:26;;;;;;;32.58;26.65;;;7.50;99.90;;;;;;5036440;28;20053;-72
2022/11/15 01:53:56;;;;;;;37.47;26.83;;;7.50;99.90;;;;;;5036013;28;20106;-72
2022/11/15 01:56:24;;;;;;;37.83;27.27;;;7.50;99.90;;;;;;5035686;28;20041;-73
2022/11/15 01:58:52;;;;;;;40.33;27.17;;;7.50;99.90;;;;;;5036241;28;20056;-73
2022/11/15 02:01:18;;;;;;;38.90;26.58;;;7.50;99.90;;;;;;5036163;28;20052;-73
2022/11/15 02:03:51;;;;;;;39.35;27.98;;;8.20;99.90;;;;;;5036182;28;20041;-73
2022/11/15 02:06:18;;;;;;;42.13;28.52;;;7.50;99.90;;;;;;5035960;28;20045;-72
2022/11/15 02:08:44;;;;;;;38.20;27.52;;;7.50;99.90;;;;;;5036055;28;20060;-73
2022/11/15 02:11:10;;;;;;;39.85;27.27;;;7.50;99.90;;;;;;5018355;28;20051;-72
2022/11/15 02:13:36;;;;;;;37.45;28.45;;;7.60;99.90;;;;;;5035884;28;20361;-72
2022/11/15 02:16:19;;;;;;;37.33;27.52;;;7.50;99.90;;;;;;5018271;28;20060;-73
2022/11/15 02:18:53;;;;;;;38.97;27.70;;;7.60;99.90;;;;;;5036158;28;20045;-73
2022/11/15 02:22:00;;;;;;;40.88;28.58;;;7.50;99.90;;;;;;5035785;28;20053;-72
2022/11/15 02:24:51;;;;;;;38.20;27.92;;;7.60;99.90;;;;;;5035445;28;20045;-72
2022/11/15 02:27:46;;;;;;;41.95;28.75;;;7.60;99.90;;;;;;5018789;28;20331;-73
2022/11/15 02:30:25;;;;;;;40.22;27.85;;;7.60;99.90;;;;;;5035675;28;20128;-73
2022/11/15 02:33:00;;;;;;;38.65;27.25;;;7.60;99.90;;;;;;5035631;28;20052;-72
2022/11/15 02:35:29;;;;;;;39.38;27.48;;;7.60;99.90;;;;;;5018561;28;20075;-73
2022/11/15 02:37:56;;;;;;;44.28;28.50;;;7.60;99.90;;;;;;5034994;28;20091;-72
2022/11/15 02:40:48;;;;;;;36.83;28.20;;;7.60;99.90;;;;;;5035550;28;20104;-72
2022/11/15 02:47:12;;;;;;;42.28;29.40;;;7.60;99.90;;;;;;5035642;28;20081;-73
2022/11/15 02:49:13;;;;;;;41.30;29.60;;;7.60;99.90;;;;;;5034961;28;20060;-73
2022/11/15 02:51:39;;;;;;;40.58;28.40;;;7.60;99.90;;;;;;5001504;28;20057;-73
2022/11/15 02:54:05;;;;;;;38.78;26.23;;;7.60;99.90;;;;;;5006114;28;20049;-72
2022/11/15 02:56:31;;;;;;;40.45;28.17;;;7.70;99.90;;;;;;5027897;28;20060;-73
2022/11/15 02:59:33;;;;;;;40.25;27.35;;;7.70;99.90;;;;;;5035287;28;20037;-72
2022/11/15 03:02:21;;;;;;;39.95;27.85;;;7.70;99.90;;;;;;5017212;28;20128;-73
2022/11/15 03:04:52;;;;;;;38.20;27.33;;;7.70;99.90;;;;;;5017495;28;20053;-73
2022/11/15 03:07:31;;;;;;;38.70;27.45;;;7.70;99.90;;;;;;5035482;28;20064;-72
2022/11/15 03:10:07;;;;;;;41.75;28.00;;;7.70;99.90;;;;;;5034738;28;20045;-73
2022/11/15 03:12:35;;;;;;;39.60;26.73;;;7.70;99.90;;;;;;5034998;28;20069;-72
2022/11/15 03:15:09;;;;;;;39.63;26.75;;;7.70;99.90;;;;;;5034834;28;20042;-71
2022/11/15 03:17:49;;;;;;;40.92;26.98;;;7.70;99.90;;;;;;5035165;28;20045;-72
2022/11/15 03:20:18;;;;;;;42.17;28.10;;;7.70;99.90;;;;;;5034985;28;20063;-72
2022/11/15 03:22:47;;;;;;;38.65;27.88;;;7.80;99.90;;;;;;5034835;28;20072;-72
2022/11/15 03:25:18;;;;;;;43.08;29.33;;;7.80;99.90;;;;;;5017641;28;20038;-74
2022/11/15 03:27:57;;;;;;;41.33;28.10;;;7.80;99.90;;;;;;4983961;28;20066;-72
2022/11/15 03:30:23;;;;;;;45.78;30.27;;;7.80;99.90;;;;;;5034985;28;20041;-72
2022/11/15 03:32:56;;;;;;;46.60;29.80;;;7.80;99.90;;;;;;5034954;28;20466;-72
2022/11/15 03:35:25;;;;;;;47.90;29.73;;;8.30;99.90;;;;;;5017313;28;20049;-72
2022/11/15 03:38:08;;;;;;;45.78;29.00;;;8.10;99.90;;;;;;5035102;28;20076;-72
2022/11/15 03:40:45;;;;;;;49.80;30.08;;;7.90;99.90;;;;;;5034816;28;20092;-72
2022/11/15 03:43:47;;;;;;;51.72;31.52;;;8.00;99.90;;;;;;5034325;28;20132;-72
2022/11/15 03:46:27;;;;;;;51.05;30.00;;;7.90;99.90;;;;;;5034573;28;20053;-72
2022/11/15 03:48:59;;;;;;;56.28;31.48;;;7.90;99.90;;;;;;5035337;28;20429;-72
2022/11/15 03:51:24;;;;;;;53.63;31.52;;;8.00;99.90;;;;;;5034789;28;20133;-72
2022/11/15 03:53:51;;;;;;;57.47;34.00;;;8.00;99.90;;;;;;5035930;28;20428;-72
2022/11/15 03:56:16;;;;;;;55.45;32.60;;;8.00;99.90;;;;;;5038464;28;20350;-73
2022/11/15 03:58:42;;;;;;;60.58;34.55;;;8.00;99.90;;;;;;5038036;28;20055;-72
2022/11/15 04:01:10;;;;;;;58.70;34.70;;;8.00;99.90;;;;;;5021131;28;20380;-71
2022/11/15 04:03:36;;;;;;;61.40;33.95;;;8.00;99.90;;;;;;5020830;28;20438;-72
2022/11/15 04:06:02;;;;;;;59.78;32.80;;;8.00;99.90;;;;;;5038171;28;20101;-72
2022/11/15 04:08:27;;;;;;;60.13;34.53;;;8.00;99.90;;;;;;5038320;28;20034;-70
2022/11/15 04:10:53;;;;;;;71.82;38.30;;;8.00;99.90;;;;;;5039064;28;20049;-71
2022/11/15 04:13:18;;;;;;;71.03;36.50;;;8.10;99.90;;;;;;5037780;28;20045;-71
2022/11/15 04:15:44;;;;;;;72.38;38.17;;;8.10;99.90;;;;;;5037771;28;20037;-72
2022/11/15 04:18:09;;;;;;;76.20;38.55;;;8.10;99.90;;;;;;5037526;28;20076;-72
2022/11/15 04:26:16;;;;;;;77.60;39.70;;;8.20;99.90;;;;;;5037841;28;20056;-71
2022/11/15 04:31:27;;;;;;;70.55;37.42;;;8.20;99.90;;;;;;5038002;28;20049;-72
2022/11/15 04:33:53;;;;;;;77.72;40.22;;;8.20;99.90;;;;;;5037093;28;20041;-71
2022/11/15 04:39:04;;;;;;;76.35;40.55;;;8.20;99.90;;;;;;5037623;28;20102;-72
2022/11/15 04:41:29;;;;;;;71.32;38.05;;;8.30;99.90;;;;;;5037758;28;20045;-72
2022/11/15 04:43:55;;;;;;;86.53;44.25;;;8.30;99.90;;;;;;5037792;28;20385;-71
2022/11/15 04:46:22;;;;;;;69.95;37.85;;;8.20;99.90;;;;;;5037300;28;20038;-72
2022/11/15 04:48:47;;;;;;;79.43;42.50;;;8.20;99.90;;;;;;5037210;28;20038;-71
2022/11/15 04:51:13;;;;;;;90.72;45.42;;;8.30;99.90;;;;;;5003634;28;20052;-71
2022/11/15 04:53:39;;;;;;;89.45;46.50;;;8.30;99.90;;;;;;5003542;28;20129;-71
2022/11/15 04:56:04;;;;;;;71.75;38.80;;;8.30;99.90;;;;;;5036988;28;20041;-71
2022/11/15 04:58:31;;;;;;;79.65;43.90;;;8.30;99.90;;;;;;5037748;28;20056;-72
2022/11/15 05:00:57;;;;;;;92.72;48.45;;;8.40;99.90;;;;;;5019871;28;20425;-71
2022/11/15 05:06:06;;;;;;;82.00;44.55;;;8.40;99.90;;;;;;4998716;28;20088;-71
2022/11/15 05:08:32;;;;;;;99.90;48.60;;;8.50;99.90;;;;;;5034809;28;20073;-75
2022/11/15 05:10:58;;;;;;;83.88;44.92;;;8.50;99.90;;;;;;5003240;28;20045;-72
2022/11/15 05:13:24;;;;;;;101.13;49.50;;;8.50;99.90;;;;;;5025663;28;20361;-71
2022/11/15 05:15:52;;;;;;;118.00;55.33;;;8.50;99.90;;;;;;5036629;28;20180;-72
2022/11/15 05:18:18;;;;;;;118.85;52.17;;;8.60;99.90;;;;;;5036663;28;20049;-72
2022/11/15 05:20:44;;;;;;;121.13;55.78;;;8.60;99.90;;;;;;5036822;28;20064;-72
2022/11/15 05:23:09;;;;;;;111.28;53.55;;;8.60;99.90;;;;;;5016067;28;20121;-71
2022/11/15 05:25:36;;;;;;;94.07;51.35;;;8.90;99.90;;;;;;5017345;28;20038;-71
2022/11/15 05:28:01;;;;;;;102.70;48.15;;;8.70;99.90;;;;;;5016855;28;20132;-71
2022/11/15 05:30:27;;;;;;;88.00;48.78;;;8.70;99.90;;;;;;4999642;28;20129;-72
2022/11/15 05:32:53;;;;;;;98.88;50.35;;;8.70;99.90;;;;;;5017005;28;20357;-71
2022/11/15 05:35:31;;;;;;;128.30;55.67;;;8.80;99.90;;;;;;4999372;28;20454;-71
2022/11/15 05:37:57;;;;;;;125.70;57.65;;;8.80;99.90;;;;;;5030636;28;20045;-71
2022/11/15 05:40:24;;;;;;;122.10;56.10;;;8.90;99.90;;;;;;5036799;28;20056;-71
2022/11/15 05:42:49;;;;;;;116.53;54.08;;;8.90;99.90;;;;;;5036114;28;20517;-73
2022/11/15 05:45:16;;;;;;;93.65;49.47;;;8.90;99.90;;;;;;5036231;28;20133;-72
2022/11/15 05:47:42;;;;;;;131.32;58.70;;;9.10;99.90;;;;;;5018812;28;20034;-73
2022/11/15 05:50:14;;;;;;;112.80;59.05;;;9.00;99.90;;;;;;5036481;28;20048;-72
2022/11/15 05:52:40;;;;;;;99.03;51.47;;;9.00;99.90;;;;;;5036480;28;20112;-72
2022/11/15 05:55:08;;;;;;;110.35;54.10;;;9.10;99.90;;;;;;5018454;28;20460;-71
2022/11/15 05:57:33;;;;;;;88.70;48.33;;;9.10;99.90;;;;;;5036016;28;20038;-71
2022/11/15 05:59:59;;;;;;;99.38;55.45;;;9.10;99.90;;;;;;5036127;28;20108;-72
2022/11/15 06:02:24;;;;;;;96.97;51.60;;;9.10;99.90;;;;;;5002320;28;20076;-72
2022/11/15 06:04:50;;;;;;;106.22;53.70;;;9.20;99.90;;;;;;5036169;28;20057;-72
2022/11/15 06:07:16;;;;;;;105.63;53.30;;;9.20;99.90;;;;;;5002367;28;20442;-72
2022/11/15 06:09:41;;;;;;;82.32;48.58;;;9.20;99.90;;;;;;5036202;28;20045;-73
2022/11/15 06:12:10;;;;;;;98.68;52.90;;;9.30;99.90;;;;;;5035403;28;20064;-72
2022/11/15 06:14:35;;;;;;;104.95;55.45;;;9.30;99.90;;;;;;5036305;28;20459;-72
2022/11/15 06:17:01;;;;;;;96.38;53.53;;;9.30;99.90;;;;;;5035610;28;20145;-72
2022/11/15 06:19:27;;;;;;;89.78;50.55;;;9.40;99.90;;;;;;5018738;28;20053;-72
2022/11/15 06:21:53;;;;;;;107.05;53.72;;;9.40;99.90;;;;;;5035736;28;20373;-72
2022/11/15 06:24:18;;;;;;;91.30;51.90;;;9.40;99.90;;;;;;5035797;28;20033;-72
2022/11/15 06:26:44;;;;;;;106.47;56.88;;;9.40;99.90;;;;;;5035361;28;20100;-72
2022/11/15 06:29:09;;;;;;;111.95;55.97;;;9.50;99.90;;;;;;5035583;28;20339;-73
2022/11/15 06:31:35;;;;;;;94.90;50.58;;;9.50;99.90;;;;;;5018556;28;20048;-72
2022/11/15 06:34:01;;;;;;;86.80;50.97;;;9.50;99.90;;;;;;5018767;28;20041;-72
2022/11/15 06:36:26;;;;;;;98.80;53.95;;;9.50;99.90;;;;;;5035625;28;20038;-72
2022/11/15 06:38:52;;;;;;;108.65;55.00;;;9.60;99.90;;;;;;5035437;28;20083;-73
2022/11/15 06:41:18;;;;;;;97.03;52.97;;;9.70;99.90;;;;;;5017529;28;20045;-72
2022/11/15 06:43:43;;;;;;;92.25;51.92;;;9.70;99.90;;;;;;5035548;28;20037;-73
2022/11/15 06:46:09;;;;;;;101.43;54.58;;;9.70;99.90;;;;;;5035468;28;20073;-73
2022/11/15 06:48:36;;;;;;;106.18;54.13;;;9.70;99.90;;;;;;5035324;28;20037;-73
2022/11/15 06:51:03;;;;;;;98.22;54.08;;;9.70;99.90;;;;;;5017915;28;20042;-72
2022/11/15 06:53:30;;;;;;;93.05;49.95;;;9.80;99.90;;;;;;5017953;28;20366;-73
2022/11/15 06:56:05;;;;;;;101.38;50.67;;;9.80;99.90;;;;;;5017518;28;20377;-72
2022/11/15 06:58:30;;;;;;;85.78;46.90;;;9.80;99.90;;;;;;5035668;28;20064;-72
2022/11/15 07:01:01;;;;;;;89.05;46.40;;;10.10;99.90;;;;;;5035325;28;20450;-72
2022/11/15 07:03:26;;;;;;;78.78;45.22;;;9.90;99.90;;;;;;5035307;28;20033;-72
2022/11/15 07:05:54;;;;;;;76.88;46.70;;;9.90;99.90;;;;;;5035316;28;20041;-72
2022/11/15 07:08:26;;;;;;;84.28;46.75;;;9.90;99.90;;;;;;5034889;28;20049;-74
2022/11/15 07:10:52;;;;;;;90.40;49.22;;;9.90;99.90;;;;;;5034809;28;20079;-72
2022/11/15 07:13:17;;;;;;;76.25;45.88;;;9.90;99.90;;;;;;5035158;28;20041;-72
2022/11/15 07:15:43;;;;;;;84.47;47.78;;;10.00;99.90;;;;;;5034839;28;20037;-72
2022/11/15 07:18:08;;;;;;;76.68;44.05;;;10.00;99.90;;;;;;5034882;28;20057;-72
2022/11/15 07:20:34;;;;;;;82.03;47.78;;;10.00;99.90;;;;;;5035040;28;20088;-72
2022/11/15 07:23:04;;;;;;;78.75;45.25;;;10.10;99.90;;;;;;5035272;28;20053;-72
2022/11/15 07:25:30;;;;;;;81.00;45.83;;;10.00;99.90;;;;;;5016939;28;20077;-73
2022/11/15 07:27:59;;;;;;;81.35;44.40;;;10.00;99.90;;;;;;5034774;28;20041;-73
2022/11/15 07:30:25;;;;;;;86.07;46.25;;;10.10;99.90;;;;;;5038981;28;20045;-72
2022/11/15 07:32:56;;;;;;;79.90;44.92;;;10.10;99.90;;;;;;5039025;28;20034;-72
2022/11/15 07:35:22;;;;;;;75.20;45.20;;;10.10;99.90;;;;;;5038990;28;20041;-73
2022/11/15 07:38:01;;;;;;;76.32;45.30;;;10.20;99.90;;;;;;5021039;28;20135;-72
2022/11/15 07:40:29;;;;;;;66.22;42.83;;;10.20;99.90;;;;;;5038617;28;20041;-72
2022/11/15 07:43:02;;;;;;;67.68;43.20;;;10.20;99.90;;;;;;5038738;28;20049;-73
2022/11/15 07:45:28;;;;;;;68.70;43.85;;;10.20;99.90;;;;;;5037794;28;20057;-72
2022/11/15 07:47:57;;;;;;;63.83;40.45;;;10.20;99.90;;;;;;5038648;28;20037;-72
2022/11/15 07:50:23;;;;;;;65.93;41.05;;;10.30;99.90;;;;;;5038507;28;20048;-73
2022/11/15 07:52:57;;;;;;;58.30;38.63;;;10.30;99.90;;;;;;5038546;28;20033;-73
2022/11/15 07:55:24;;;;;;;60.60;38.75;;;10.20;99.90;;;;;;5038295;28;20050;-72
2022/11/15 07:57:50;;;;;;;63.67;39.72;;;10.30;99.90;;;;;;5038844;28;20052;-73
2022/11/15 08:00:16;;;;;;;60.45;39.03;;;10.50;99.90;;;;;;5038558;28;20041;-72
2022/11/15 08:02:42;;;;;;;55.25;37.60;;;10.40;99.90;;;;;;5038564;28;20052;-72
2022/11/15 08:05:10;;;;;;;53.45;36.28;;;10.40;99.90;;;;;;5038388;28;20045;-72
2022/11/15 08:07:37;;;;;;;54.97;35.63;;;10.50;99.90;;;;;;5038238;28;20037;-72
2022/11/15 08:10:05;;;;;;;57.80;37.75;;;10.50;99.90;;;;;;5020497;28;20459;-72
2022/11/15 08:12:31;;;;;;;54.28;36.97;;;10.50;99.90;;;;;;5038298;28;20069;-72
2022/11/15 08:14:57;;;;;;;48.65;35.88;;;10.50;99.90;;;;;;5038170;28;20339;-73
2022/11/15 08:17:24;;;;;;;43.17;33.33;;;10.60;99.90;;;;;;5038093;28;20050;-73
2022/11/15 08:19:50;;;;;;;45.65;32.97;;;10.60;99.90;;;;;;5038045;28;20053;-72
2022/11/15 08:22:15;;;;;;;45.60;33.67;;;10.60;99.90;;;;;;5020047;28;20072;-72
2022/11/15 08:24:41;;;;;;;51.30;33.88;;;10.70;99.90;;;;;;5038740;28;20413;-73
2022/11/15 08:27:14;;;;;;;46.22;33.40;;;10.70;99.90;;;;;;5038088;28;20140;-72
2022/11/15 08:29:44;;;;;;;39.92;30.73;;;10.80;99.90;;;;;;5037953;28;20108;-72
2022/11/15 08:32:11;;;;;;;40.95;30.40;;;10.90;99.90;;;;;;5038269;28;20353;-72
2022/11/15 08:34:40;;;;;;;43.20;32.70;;;10.90;99.90;;;;;;5037620;28;20454;-73
2022/11/15 08:37:09;;;;;;;43.78;30.65;;;10.90;99.90;;;;;;5037489;28;20045;-73
2022/11/15 08:39:37;;;;;;;38.80;28.95;;;10.90;99.90;;;;;;5037462;28;20053;-72
2022/11/15 08:42:03;;;;;;;38.08;29.25;;;11.00;99.90;;;;;;5037695;28;20188;-72
2022/11/15 08:44:29;;;;;;;40.80;29.92;;;11.00;99.90;;;;;;5037566;28;20116;-72
2022/11/15 08:46:54;;;;;;;39.88;28.30;;;11.00;99.90;;;;;;5037510;28;20381;-73
2022/11/15 08:49:20;;;;;;;41.63;29.60;;;11.10;99.90;;;;;;5037565;28;20121;-72
2022/11/15 08:51:45;;;;;;;34.40;27.35;;;11.20;99.90;;;;;;5037207;28;20033;-72
2022/11/15 08:54:11;;;;;;;36.08;27.92;;;11.30;99.90;;;;;;5037255;28;20472;-72
2022/11/15 08:56:36;;;;;;;31.75;26.83;;;11.30;99.90;;;;;;5037632;28;20060;-72
2022/11/15 08:59:02;;;;;;;33.63;26.08;;;11.50;99.90;;;;;;5019729;28;20052;-73
2022/11/15 09:01:28;;;;;;;32.63;26.63;;;11.50;99.90;;;;;;5037222;28;20448;-73
2022/11/15 09:03:54;;;;;;;32.22;26.83;;;11.50;99.90;;;;;;5037239;28;20058;-72
2022/11/15 09:06:19;;;;;;;33.50;25.50;;;11.60;99.90;;;;;;5037387;28;20072;-73
2022/11/15 09:08:45;;;;;;;35.83;26.98;;;11.50;99.90;;;;;;5019998;28;20045;-72
2022/11/15 09:11:10;;;;;;;37.92;27.38;;;11.50;99.90;;;;;;5036826;28;20061;-73
2022/11/15 09:13:36;;;;;;;35.08;26.05;;;11.50;99.90;;;;;;5019641;28;20049;-72
2022/11/15 09:16:03;;;;;;;34.67;25.92;;;11.50;99.90;;;;;;5036856;28;20386;-73
2022/11/15 09:18:29;;;;;;;33.35;25.38;;;11.50;99.90;;;;;;5036838;28;20104;-72
2022/11/15 09:20:57;;;;;;;32.90;24.02;;;11.50;99.90;;;;;;5037242;28;20398;-72
2022/11/15 09:23:22;;;;;;;33.83;25.30;;;11.50;99.90;;;;;;5036984;28;20429;-73
2022/11/15 09:25:48;;;;;;;31.85;24.80;;;11.50;99.90;;;;;;5036631;28;20046;-73
2022/11/15 09:28:14;;;;;;;32.85;26.48;;;11.60;99.90;;;;;;5036330;28;20047;-73
2022/11/15 09:30:39;;;;;;;33.67;24.02;;;11.60;99.90;;;;;;5037173;28;20468;-73
2022/11/15 09:33:12;;;;;;;30.92;24.98;;;11.70;99.90;;;;;;5036798;28;20048;-72
2022/11/15 09:35:38;;;;;;;28.40;22.52;;;11.70;99.90;;;;;;5036759;28;20045;-73
2022/11/15 09:38:04;;;;;;;29.75;23.92;;;11.70;99.90;;;;;;5036727;28;20422;-73
2022/11/15 09:40:32;;;;;;;33.40;24.58;;;11.80;99.90;;;;;;5018906;28;20516;-73
2022/11/15 09:43:16;;;;;;;30.38;23.75;;;11.80;99.90;;;;;;5018692;28;20056;-73
2022/11/15 09:46:00;;;;;;;31.60;24.25;;;11.90;99.90;;;;;;5036212;28;20052;-73
2022/11/15 09:48:35;;;;;;;32.33;23.40;;;12.00;99.90;;;;;;5036674;28;20056;-73
2022/11/15 09:51:03;;;;;;;30.85;22.45;;;12.00;99.90;;;;;;5035698;28;20037;-73
2022/11/15 09:53:29;;;;;;;30.25;23.23;;;12.00;99.90;;;;;;5036315;28;20052;-73
2022/11/15 09:56:04;;;;;;;29.33;22.50;;;12.10;99.90;;;;;;5018580;28;20033;-73
2022/11/15 09:59:03;;;;;;;30.00;22.20;;;12.10;99.90;;;;;;5036618;28;20361;-73
2022/11/15 10:02:08;;;;;;;27.20;21.70;;;12.10;99.90;;;;;;5036057;28;20107;-73
2022/11/15 10:04:35;;;;;;;26.33;20.90;;;12.10;99.90;;;;;;5018500;28;20057;-73
2022/11/15 10:07:16;;;;;;;28.38;20.92;;;12.00;99.90;;;;;;5018428;28;20081;-73
2022/11/15 10:10:04;;;;;;;25.15;21.60;;;12.00;99.90;;;;;;5036599;28;20045;-73
2022/11/15 10:12:30;;;;;;;26.27;20.30;;;12.00;99.90;;;;;;5035963;28;20059;-73
2022/11/15 10:15:08;;;;;;;25.95;20.27;;;12.10;99.90;;;;;;5035619;28;20048;-73
2022/11/15 10:18:08;;;;;;;23.00;20.48;;;12.00;99.90;;;;;;5035529;28;20081;-73
2022/11/15 10:20:40;;;;;;;24.50;19.75;;;12.00;99.90;;;;;;4997902;28;20045;-73
2022/11/15 10:23:13;;;;;;;25.88;20.00;;;12.00;99.90;;;;;;5035678;28;20065;-73
2022/11/15 10:25:38;;;;;;;21.67;19.17;;;12.00;99.90;;;;;;5018109;28;20457;-73
2022/11/15 10:28:10;;;;;;;25.58;20.98;;;12.00;99.90;;;;;;5018085;28;20052;-72
2022/11/15 10:30:37;;;;;;;23.67;19.65;;;12.00;99.90;;;;;;5035435;28;20087;-73
2022/11/15 10:33:26;;;;;;;22.13;18.63;;;12.00;99.90;;;;;;5017842;28;20037;-72
2022/11/15 10:36:12;;;;;;;20.85;18.63;;;12.00;99.90;;;;;;5035432;28;20073;-72
2022/11/15 10:38:50;;;;;;;22.38;18.65;;;12.00;99.90;;;;;;5035496;28;20370;-73
2022/11/15 10:41:26;;;;;;;22.98;19.00;;;12.00;99.90;;;;;;5035918;28;20034;-73
2022/11/15 10:44:11;;;;;;;22.65;19.13;;;12.00;99.90;;;;;;5035100;28;20052;-72
2022/11/15 10:46:40;;;;;;;26.00;20.08;;;12.00;99.90;;;;;;5035566;28;20482;-72
2022/11/15 10:49:27;;;;;;;24.92;20.63;;;11.90;99.90;;;;;;5035522;28;20390;-73
2022/11/15 10:52:02;;;;;;;28.50;22.20;;;11.90;99.90;;;;;;5035402;28;20064;-72
2022/11/15 10:54:42;;;;;;;23.23;18.52;;;11.90;99.90;;;;;;5018235;28;20038;-72
2022/11/15 10:57:15;;;;;;;25.02;20.25;;;12.00;99.90;;;;;;5035300;28;20063;-72
2022/11/15 10:59:46;;;;;;;24.92;22.15;;;12.00;99.90;;;;;;5034497;28;20056;-72
2022/11/15 11:02:42;;;;;;;26.60;21.55;;;12.10;99.90;;;;;;5035088;28;20116;-72
2022/11/15 11:05:36;;;;;;;22.27;19.77;;;12.20;99.90;;;;;;5035111;28;20111;-72
2022/11/15 11:08:03;;;;;;;;;;;12.30;99.90;;;;;;5018116;28;20049;-71
2022/11/15 11:10:29;;;;;;;22.73;20.02;;;12.30;99.90;;;;;;5034990;28;19921;-71
2022/11/15 11:12:55;;;;;;;22.40;19.95;;;12.30;99.90;;;;;;5035005;28;20048;-72
2022/11/15 11:15:24;;;;;;;23.70;20.77;;;12.30;99.90;;;;;;5034592;28;20042;-71
2022/11/15 11:18:16;;;;;;;21.80;19.13;;;12.40;99.90;;;;;;5034717;28;20131;-72
2022/11/15 11:20:49;;;;;;;23.95;19.30;;;12.30;99.90;;;;;;5035011;28;20366;-72
2022/11/15 11:23:34;;;;;;;24.33;19.50;;;12.30;99.90;;;;;;5035180;28;20120;-72
2022/11/15 11:26:05;;;;;;;21.85;18.80;;;12.40;99.90;;;;;;5034919;28;20048;-72
2022/11/15 11:28:56;;;;;;;20.17;17.33;;;12.40;99.90;;;;;;5013619;28;20054;-72
2022/11/15 11:31:39;;;;;;;19.40;16.98;;;12.50;99.90;;;;;;5015524;28;20450;-72
2022/11/15 11:34:17;;;;;;;19.07;16.50;;;12.70;99.90;;;;;;5015479;28;20037;-71
2022/11/15 11:37:13;;;;;;;16.55;14.80;;;12.90;99.90;;;;;;5015524;28;20096;-73
2022/11/15 11:39:51;;;;;;;20.17;15.18;;;12.90;99.90;;;;;;5015246;28;20121;-73
2022/11/15 11:42:37;;;;;;;16.55;14.50;;;13.00;99.90;;;;;;5015047;28;20057;-72
2022/11/15 11:45:31;;;;;;;19.23;15.20;;;13.00;99.90;;;;;;5034276;28;20072;-73
2022/11/15 11:47:57;;;;;;;14.40;12.27;;;13.00;99.90;;;;;;4992329;28;20069;-73
2022/11/15 11:50:29;;;;;;;12.80;11.38;;;13.00;99.90;;;;;;5034685;28;20527;-72
2022/11/15 11:52:59;;;;;;;14.02;11.20;;;13.00;99.90;;;;;;5034657;28;20037;-72
2022/11/15 11:55:47;;;;;;;15.73;11.65;;;13.00;99.90;;;;;;5034659;28;20048;-72
2022/11/15 11:58:19;;;;;;;11.43;10.32;;;13.10;99.90;;;;;;5016981;28;20052;-73
2022/11/15 12:01:11;;;;;;;13.23;9.80;;;13.00;99.90;;;;;;5016879;28;20037;-73
2022/11/15 12:03:52;;;;;;;12.93;10.02;;;13.00;99.90;;;;;;5034777;28;20041;-73
2022/11/15 12:06:20;;;;;;;13.98;9.55;;;13.10;99.90;;;;;;5034824;28;20041;-72
2022/11/15 12:09:01;;;;;;;9.80;8.20;;;13.00;99.90;;;;;;5035237;28;20054;-72
2022/11/15 12:11:51;;;;;;;14.70;8.60;;;12.90;99.90;;;;;;5034870;28;20091;-73
2022/11/15 12:14:45;;;;;;;13.10;7.82;;;12.80;99.90;;;;;;5016857;28;20049;-72
2022/11/15 12:17:12;;;;;;;13.07;8.57;;;12.60;99.90;;;;;;5025669;28;20136;-72
2022/11/15 12:19:38;;;;;;;12.13;9.20;;;12.50;99.90;;;;;;5037915;28;20056;-72
2022/11/15 12:22:15;;;;;;;9.82;7.47;;;12.50;99.90;;;;;;5037992;28;20104;-72
2022/11/15 12:24:49;;;;;;;11.23;7.47;;;12.60;99.90;;;;;;5038094;28;20033;-73
2022/11/15 12:27:29;;;;;;;12.88;7.03;;;12.50;99.90;;;;;;5037972;28;20120;-72
2022/11/15 12:30:00;;;;;;;12.48;7.60;;;12.50;99.90;;;;;;5018028;28;20044;-73
2022/11/15 12:32:31;;;;;;;11.50;7.10;;;12.50;99.90;;;;;;5018153;28;20030;-72
2022/11/15 12:34:58;;;;;;;10.43;6.82;;;12.30;99.90;;;;;;5017989;28;20038;-73
2022/11/15 12:37:37;;;;;;;11.48;6.68;;;12.30;99.90;;;;;;5018135;28;20050;-73
2022/11/15 12:40:09;;;;;;;8.85;5.70;;;12.30;99.90;;;;;;4984890;28;20184;-72
2022/11/15 12:42:57;;;;;;;11.85;7.03;;;12.20;99.90;;;;;;4987381;28;20124;-72
2022/11/15 12:45:40;;;;;;;11.23;6.70;;;12.10;99.90;;;;;;5037684;28;20461;-72
2022/11/15 12:48:18;;;;;;;12.30;7.22;;;12.00;99.90;;;;;;5037055;28;20037;-72
2022/11/15 12:50:55;;;;;;;9.20;6.43;;;12.00;99.90;;;;;;5037465;28;20045;-73
2022/11/15 12:53:27;;;;;;;9.85;6.68;;;11.90;99.90;;;;;;5037403;28;20063;-72
2022/11/15 12:56:07;;;;;;;10.80;6.60;;;11.90;99.90;;;;;;5037699;28;20052;-72
2022/11/15 12:58:58;;;;;;;10.45;6.50;;;12.00;99.90;;;;;;5037311;28;20056;-73
2022/11/15 13:01:30;;;;;;;11.43;6.80;;;12.00;99.90;;;;;;5037144;28;20037;-73
2022/11/15 13:04:20;;;;;;;9.77;6.82;;;12.10;99.90;;;;;;5003347;28;20088;-72
2022/11/15 13:06:51;;;;;;;8.68;6.13;;;12.20;99.90;;;;;;5037313;28;20065;-73
2022/11/15 13:09:32;;;;;;;12.23;6.43;;;12.20;99.90;;;;;;5037223;28;20042;-72